createdAt,value
2019-05-18T00:01:26.827Z,83.79
2019-05-18T00:03:58.824Z,83.87
2019-05-18T00:06:30.636Z,83.80
2019-05-18T00:09:02.191Z,83.82
2019-05-18T00:11:35.260Z,84.21
2019-05-18T00:14:07.066Z,84.83
2019-05-18T00:16:38.607Z,84.93
2019-05-18T00:19:10.296Z,84.52
2019-05-18T00:21:41.899Z,84.42
2019-05-18T00:24:13.531Z,84.68
2019-05-18T00:26:45.529Z,85.80
2019-05-18T00:29:17.307Z,85.89
2019-05-18T00:31:49.044Z,86.56
2019-05-18T00:34:20.786Z,86.64
2019-05-18T00:36:52.676Z,87.09
2019-05-18T00:39:24.385Z,87.55
2019-05-18T00:41:56.100Z,87.47
2019-05-18T00:44:27.875Z,86.88
2019-05-18T00:46:59.528Z,86.89
2019-05-18T00:49:31.246Z,86.97
2019-05-18T00:52:02.989Z,87.23
2019-05-18T00:54:34.839Z,87.26
2019-05-18T00:57:06.832Z,86.71
2019-05-18T00:59:38.658Z,86.49
2019-05-18T01:02:10.309Z,85.58
2019-05-18T01:04:41.911Z,85.38
2019-05-18T01:07:13.808Z,85.09
2019-05-18T01:09:45.332Z,84.94
2019-05-18T01:12:17.211Z,84.54
2019-05-18T01:14:48.932Z,84.43
2019-05-18T01:17:21.536Z,84.24
2019-05-18T01:19:53.313Z,83.88
2019-05-18T01:22:24.811Z,84.20
2019-05-18T01:24:56.196Z,84.21
2019-05-18T01:27:28.244Z,84.67
2019-05-18T01:29:59.941Z,84.61
2019-05-18T01:32:31.608Z,84.49
2019-05-18T01:35:03.238Z,84.39
2019-05-18T01:37:34.926Z,84.14
2019-05-18T01:40:07.542Z,84.31
2019-05-18T01:42:39.268Z,84.78
2019-05-18T01:45:16.878Z,84.29
2019-05-18T01:47:44.882Z,84.34
2019-05-18T01:50:16.503Z,84.39
2019-05-18T01:52:48.316Z,84.35
2019-05-18T01:55:19.965Z,84.35
2019-05-18T01:57:51.569Z,84.17
2019-05-18T02:00:23.732Z,84.05
2019-05-18T02:02:55.429Z,84.14
2019-05-18T02:05:27.267Z,84.29
2019-05-18T02:07:58.990Z,84.18
2019-05-18T02:10:31.015Z,84.47
2019-05-18T02:13:02.918Z,84.95
2019-05-18T02:15:35.690Z,84.47
2019-05-18T02:18:07.687Z,84.19
2019-05-18T02:20:39.492Z,84.60
2019-05-18T02:23:11.318Z,84.62
2019-05-18T02:25:43.041Z,85.12
2019-05-18T02:28:15.010Z,85.36
2019-05-18T02:30:46.783Z,85.44
2019-05-18T02:33:18.270Z,85.30
2019-05-18T02:35:49.927Z,85.89
2019-05-18T02:38:21.617Z,85.76
2019-05-18T02:40:53.114Z,85.59
2019-05-18T02:43:24.509Z,85.68
2019-05-18T02:45:56.258Z,85.21
2019-05-18T02:48:27.973Z,84.99
2019-05-18T02:50:59.563Z,85.10
2019-05-18T02:53:31.029Z,85.11
2019-05-18T02:56:03.889Z,85.69
2019-05-18T02:58:35.880Z,85.76
2019-05-18T03:01:07.632Z,85.60
2019-05-18T03:03:39.255Z,85.68
2019-05-18T03:06:11.369Z,85.92
2019-05-18T03:08:43.092Z,85.53
2019-05-18T03:11:15.064Z,85.39
2019-05-18T03:13:46.593Z,85.76
2019-05-18T03:16:18.431Z,85.45
2019-05-18T03:19:06.935Z,85.34
2019-05-18T03:21:24.150Z,85.25
2019-05-18T03:23:55.702Z,85.14
2019-05-18T03:26:27.379Z,85.33
2019-05-18T03:28:59.476Z,85.42
2019-05-18T03:31:31.428Z,85.65
2019-05-18T03:34:03.287Z,85.16
2019-05-18T03:36:35.490Z,83.55
2019-05-18T03:39:08.041Z,82.94
2019-05-18T03:41:39.551Z,83.22
2019-05-18T03:44:11.093Z,83.23
2019-05-18T03:46:43.916Z,83.02
2019-05-18T03:49:26.422Z,83.31
2019-05-18T03:51:49.127Z,83.33
2019-05-18T03:54:20.891Z,83.18
2019-05-18T03:56:52.758Z,83.60
2019-05-18T03:59:24.277Z,83.67
2019-05-18T04:01:57.852Z,84.04
2019-05-18T04:04:29.463Z,84.29
2019-05-18T04:07:00.779Z,83.86
2019-05-18T04:09:32.583Z,84.30
2019-05-18T04:12:04.314Z,84.10
2019-05-18T04:14:35.833Z,84.68
2019-05-18T04:17:07.644Z,84.20
2019-05-18T04:19:46.199Z,84.57
2019-05-18T04:22:12.843Z,84.89
2019-05-18T04:24:44.404Z,85.22
2019-05-18T04:27:17.256Z,85.44
2019-05-18T04:29:48.820Z,85.85
2019-05-18T04:32:20.608Z,85.77
2019-05-18T04:34:52.240Z,85.60
2019-05-18T04:37:23.749Z,85.64
2019-05-18T04:39:56.271Z,84.96
2019-05-18T04:42:27.924Z,84.96
2019-05-18T04:44:59.725Z,83.85
2019-05-18T04:47:31.255Z,83.26
2019-05-18T04:50:05.640Z,83.52
2019-05-18T04:52:36.615Z,82.87
2019-05-18T04:55:08.637Z,82.78
2019-05-18T04:57:40.273Z,82.40
2019-05-18T05:00:12.448Z,81.59
2019-05-18T05:02:44.133Z,80.92
2019-05-18T05:05:15.888Z,80.81
2019-05-18T05:07:47.691Z,80.85
2019-05-18T05:10:19.366Z,81.09
2019-05-18T05:12:51.194Z,80.20
2019-05-18T05:15:22.725Z,79.97
2019-05-18T05:17:54.606Z,80.24
2019-05-18T05:20:26.568Z,79.70
2019-05-18T05:22:58.351Z,79.39
2019-05-18T05:25:30.060Z,79.40
2019-05-18T05:28:01.635Z,79.48
2019-05-18T05:30:33.337Z,79.13
2019-05-18T05:33:05.289Z,78.83
2019-05-18T05:35:37.828Z,78.09
2019-05-18T05:38:09.946Z,78.64
2019-05-18T05:40:41.535Z,80.09
2019-05-18T05:43:13.174Z,79.46
2019-05-18T05:45:45.157Z,78.83
2019-05-18T05:48:16.717Z,77.92
2019-05-18T05:50:48.573Z,78.00
2019-05-18T05:53:20.371Z,78.48
2019-05-18T05:55:51.967Z,78.11
2019-05-18T05:58:23.686Z,77.85
2019-05-18T06:00:55.385Z,78.29
2019-05-18T06:03:26.867Z,79.23
2019-05-18T06:05:58.454Z,78.67
2019-05-18T06:08:30.487Z,78.69
2019-05-18T06:11:02.128Z,78.69
2019-05-18T06:13:33.785Z,78.63
2019-05-18T06:16:06.772Z,79.80
2019-05-18T06:18:38.471Z,80.75
2019-05-18T06:21:10.017Z,79.95
2019-05-18T06:23:41.843Z,79.87
2019-05-18T06:26:13.533Z,80.07
2019-05-18T06:28:45.343Z,80.00
2019-05-18T06:31:16.959Z,80.45
2019-05-18T06:33:48.449Z,79.75
2019-05-18T06:36:20.263Z,78.78
2019-05-18T06:38:52.017Z,79.05
2019-05-18T06:41:23.970Z,78.63
2019-05-18T06:43:58.416Z,78.03
2019-05-18T06:46:29.228Z,77.03
2019-05-18T06:49:00.957Z,77.20
2019-05-18T06:51:32.860Z,76.36
2019-05-18T06:54:04.398Z,76.55
2019-05-18T06:56:37.656Z,75.82
2019-05-18T06:59:10.955Z,75.02
2019-05-18T07:01:42.731Z,75.05
2019-05-18T07:04:14.501Z,74.59
2019-05-18T07:06:46.327Z,73.31
2019-05-18T07:09:17.816Z,73.10
2019-05-18T07:11:49.759Z,72.46
2019-05-18T07:14:25.733Z,72.08
2019-05-18T07:16:56.832Z,71.72
2019-05-18T07:19:28.354Z,71.83
2019-05-18T07:22:00.254Z,72.02
2019-05-18T07:24:31.799Z,70.65
2019-05-18T07:27:04.100Z,70.15
2019-05-18T07:29:36.683Z,70.07
2019-05-18T07:32:08.396Z,69.85
2019-05-18T07:34:40.246Z,68.57
2019-05-18T07:37:11.912Z,68.59
2019-05-18T07:39:43.462Z,66.29
2019-05-18T07:42:15.216Z,67.90
2019-05-18T07:44:46.740Z,67.53
2019-05-18T07:47:18.320Z,67.38
2019-05-18T07:49:49.721Z,67.83
2019-05-18T07:52:21.284Z,66.34
2019-05-18T07:54:55.869Z,67.08
2019-05-18T07:57:27.725Z,66.69
2019-05-18T07:59:59.392Z,64.17
2019-05-18T08:02:31.122Z,65.72
2019-05-18T08:05:02.755Z,67.14
2019-05-18T08:07:34.561Z,64.74
2019-05-18T08:10:07.799Z,64.30
2019-05-18T08:12:39.505Z,62.05
2019-05-18T08:15:12.375Z,61.19
2019-05-18T08:17:44.048Z,60.78
2019-05-18T08:20:16.047Z,60.51
2019-05-18T08:22:47.722Z,60.11
2019-05-18T08:25:20.393Z,58.73
2019-05-18T08:27:52.186Z,59.25
2019-05-18T08:30:24.173Z,56.79
2019-05-18T08:32:56.029Z,56.71
2019-05-18T08:35:27.929Z,57.05
2019-05-18T08:37:59.856Z,54.49
2019-05-18T08:40:31.838Z,55.58
2019-05-18T08:43:03.466Z,55.39
2019-05-18T08:45:37.923Z,56.37
2019-05-18T08:48:09.529Z,54.86
2019-05-18T08:50:41.549Z,56.21
2019-05-18T08:53:13.145Z,54.68
2019-05-18T08:55:45.094Z,54.43
2019-05-18T08:58:16.882Z,53.58
2019-05-18T09:00:48.678Z,52.04
2019-05-18T09:03:20.655Z,53.01
2019-05-18T09:05:52.180Z,51.36
2019-05-18T09:08:23.841Z,53.01
2019-05-18T09:10:55.355Z,50.63
2019-05-18T09:13:26.967Z,51.84
2019-05-18T09:15:59.086Z,50.70
2019-05-18T09:18:30.988Z,53.53
2019-05-18T09:21:03.228Z,50.10
2019-05-18T09:23:35.375Z,49.87
2019-05-18T09:30:58.365Z,49.49
2019-05-18T09:33:30.133Z,50.06
2019-05-18T09:36:01.827Z,47.89
2019-05-18T09:38:33.666Z,46.24
2019-05-18T09:41:05.601Z,47.74
2019-05-18T09:43:37.266Z,41.23
2019-05-18T09:46:09.426Z,45.12
2019-05-18T09:48:42.126Z,43.41
2019-05-18T09:51:13.964Z,34.28
2019-05-18T09:53:51.614Z,35.90
2019-05-18T09:56:18.932Z,32.89
2019-05-18T09:58:50.749Z,34.87
2019-05-18T10:01:22.379Z,36.17
2019-05-18T10:03:54.017Z,38.07
2019-05-18T10:06:25.756Z,37.01
2019-05-18T10:08:57.465Z,40.23
2019-05-18T10:11:29.522Z,36.33
2019-05-18T10:14:01.148Z,35.74
2019-05-18T10:16:32.925Z,34.40
2019-05-18T10:19:04.592Z,35.34
2019-05-18T10:21:36.089Z,35.99
2019-05-18T10:24:07.813Z,34.33
2019-05-18T10:26:39.596Z,35.57
2019-05-18T10:29:11.311Z,36.11
2019-05-18T10:31:43.202Z,33.87
2019-05-18T10:34:15.085Z,34.97
2019-05-18T10:36:46.794Z,33.74
2019-05-18T10:39:18.348Z,34.51
2019-05-18T10:41:50.174Z,36.35
2019-05-18T10:44:22.275Z,36.44
2019-05-18T10:46:53.917Z,34.26
2019-05-18T10:49:25.450Z,33.48
2019-05-18T10:51:58.621Z,34.58
2019-05-18T10:54:30.360Z,35.40
2019-05-18T10:57:02.829Z,32.99
2019-05-18T10:59:34.791Z,32.95
2019-05-18T11:02:06.927Z,34.58
2019-05-18T11:04:38.632Z,34.91
2019-05-18T11:07:10.267Z,32.66
2019-05-18T11:09:42.001Z,31.82
2019-05-18T11:12:13.679Z,32.89
2019-05-18T11:14:45.369Z,32.94
2019-05-18T11:17:16.950Z,31.50
2019-05-18T11:19:49.028Z,31.43
2019-05-18T11:22:20.890Z,32.04
2019-05-18T11:24:52.915Z,33.70
2019-05-18T11:27:25.868Z,35.20
2019-05-18T11:29:57.494Z,35.20
2019-05-18T11:32:29.564Z,35.23
2019-05-18T11:35:01.246Z,35.99
2019-05-18T11:40:03.422Z,37.44
2019-05-18T11:42:35.489Z,35.83
2019-05-18T11:45:09.164Z,37.46
2019-05-18T11:47:41.146Z,35.91
2019-05-18T11:50:15.122Z,37.25
2019-05-18T11:52:46.881Z,37.34
2019-05-18T11:55:19.639Z,37.09
2019-05-18T11:57:51.465Z,36.75
2019-05-18T12:00:25.346Z,37.53
2019-05-18T12:02:57.278Z,38.36
2019-05-18T12:05:28.805Z,40.46
2019-05-18T12:08:00.283Z,40.02
2019-05-18T12:10:32.158Z,41.49
2019-05-18T12:13:03.987Z,42.21
2019-05-18T12:15:35.794Z,45.07
2019-05-18T12:18:07.520Z,45.28
2019-05-18T12:20:39.385Z,47.02
2019-05-18T12:23:11.279Z,45.57
2019-05-18T12:25:43.122Z,46.60
2019-05-18T12:28:14.565Z,44.03
2019-05-18T12:30:46.211Z,40.59
2019-05-18T12:33:17.961Z,36.98
2019-05-18T12:35:49.726Z,35.13
2019-05-18T12:38:21.302Z,32.52
2019-05-18T12:40:53.146Z,30.74
2019-05-18T12:43:24.695Z,28.68
2019-05-18T12:45:56.594Z,26.88
2019-05-18T12:48:28.478Z,27.67
2019-05-18T12:51:00.211Z,25.55
2019-05-18T12:53:31.835Z,27.13
2019-05-18T12:56:03.585Z,23.94
2019-05-18T12:58:37.589Z,25.00
2019-05-18T13:01:08.752Z,24.38
2019-05-18T13:03:40.485Z,23.78
2019-05-18T13:06:12.058Z,24.53
2019-05-18T13:08:44.100Z,23.28
2019-05-18T13:11:15.702Z,23.88
2019-05-18T13:13:47.541Z,24.31
2019-05-18T13:16:19.339Z,24.13
2019-05-18T13:18:50.880Z,25.42
2019-05-18T13:21:22.554Z,23.89
2019-05-18T13:23:54.447Z,25.46
2019-05-18T13:26:26.349Z,25.70
2019-05-18T13:28:58.361Z,27.16
2019-05-18T13:31:30.104Z,29.23
2019-05-18T13:34:01.926Z,27.97
2019-05-18T13:36:33.625Z,30.23
2019-05-18T13:39:06.128Z,29.91
2019-05-18T13:41:37.742Z,29.01
2019-05-18T13:44:09.590Z,27.56
2019-05-18T13:46:41.507Z,24.90
2019-05-18T13:49:12.949Z,26.18
2019-05-18T13:51:44.541Z,24.88
2019-05-18T13:54:16.189Z,24.57
2019-05-18T13:56:50.710Z,23.56
2019-05-18T13:59:22.541Z,21.94
2019-05-18T14:01:55.140Z,21.22
2019-05-18T14:04:26.923Z,21.84
2019-05-18T14:06:58.610Z,20.67
2019-05-18T14:09:30.223Z,21.50
2019-05-18T14:12:01.868Z,21.17
2019-05-18T14:14:33.573Z,21.09
2019-05-18T14:17:05.410Z,21.55
2019-05-18T14:19:37.268Z,22.65
2019-05-18T14:22:09.206Z,23.39
2019-05-18T14:24:41.461Z,22.84
2019-05-18T14:27:13.174Z,22.52
2019-05-18T14:29:44.850Z,22.37
2019-05-18T14:32:16.548Z,22.81
2019-05-18T14:34:48.548Z,23.33
2019-05-18T14:37:20.031Z,23.27
2019-05-18T14:39:51.833Z,22.20
2019-05-18T14:42:23.769Z,23.22
2019-05-18T14:44:55.522Z,22.49
2019-05-18T14:47:27.649Z,22.58
2019-05-18T14:49:59.397Z,22.31
2019-05-18T14:52:30.835Z,22.23
2019-05-18T14:55:02.882Z,21.89
2019-05-18T14:57:34.417Z,21.78
2019-05-18T15:00:07.079Z,22.21
2019-05-18T15:02:38.788Z,22.33
2019-05-18T15:05:10.659Z,23.71
2019-05-18T15:07:42.353Z,24.86
2019-05-18T15:10:15.587Z,26.88
2019-05-18T15:12:47.115Z,27.53
2019-05-18T15:15:18.763Z,29.67
2019-05-18T15:17:50.969Z,30.66
2019-05-18T15:20:22.877Z,30.11
2019-05-18T15:22:54.726Z,31.81
2019-05-18T15:25:26.761Z,32.56
2019-05-18T15:27:58.436Z,33.90
2019-05-18T15:30:30.019Z,33.85
2019-05-18T15:33:01.827Z,33.68
2019-05-18T15:35:33.531Z,34.55
2019-05-18T15:38:05.447Z,34.31
2019-05-18T15:40:37.173Z,35.20
2019-05-18T15:43:09.288Z,35.07
2019-05-18T15:45:40.730Z,35.70
2019-05-18T15:48:12.442Z,35.92
2019-05-18T15:50:44.017Z,35.80
2019-05-18T15:53:15.637Z,36.13
2019-05-18T15:55:47.586Z,37.51
2019-05-18T15:58:19.295Z,36.84
2019-05-18T16:00:50.917Z,37.71
2019-05-18T16:03:22.477Z,35.94
2019-05-18T16:05:54.148Z,36.67
2019-05-18T16:08:25.752Z,37.74
2019-05-18T16:10:57.684Z,37.66
2019-05-18T16:13:29.346Z,37.19
2019-05-18T16:16:01.066Z,37.59
2019-05-18T16:18:32.598Z,37.13
2019-05-18T16:21:04.372Z,37.22
2019-05-18T16:23:36.500Z,37.49
2019-05-18T16:26:20.721Z,37.67
2019-05-18T16:28:41.561Z,38.12
2019-05-18T16:31:13.243Z,37.87
2019-05-18T16:33:45.185Z,36.85
2019-05-18T16:36:16.862Z,37.40
2019-05-18T16:38:48.529Z,37.53
2019-05-18T16:41:20.165Z,37.66
2019-05-18T16:43:52.054Z,37.30
2019-05-18T16:46:23.614Z,36.81
2019-05-18T16:48:55.527Z,37.65
2019-05-18T16:51:27.414Z,38.10
2019-05-18T16:53:59.066Z,38.81
2019-05-18T16:56:35.252Z,38.58
2019-05-18T16:59:05.026Z,38.67
2019-05-18T17:01:36.520Z,38.86
2019-05-18T17:04:07.947Z,39.41
2019-05-18T17:06:40.162Z,40.93
2019-05-18T17:09:12.064Z,41.61
2019-05-18T17:11:44.063Z,41.99
2019-05-18T17:14:17.598Z,42.07
2019-05-18T17:16:49.287Z,42.42
2019-05-18T17:19:21.155Z,42.23
2019-05-18T17:21:52.916Z,42.25
2019-05-18T17:24:24.790Z,43.94
2019-05-18T17:26:56.465Z,45.72
2019-05-18T17:29:28.266Z,46.65
2019-05-18T17:32:00.245Z,44.43
2019-05-18T17:34:32.027Z,45.38
2019-05-18T17:37:04.198Z,47.05
2019-05-18T17:39:36.068Z,47.69
2019-05-18T17:42:07.798Z,48.90
2019-05-18T17:44:39.333Z,49.05
2019-05-18T17:47:12.074Z,51.47
2019-05-18T17:49:43.897Z,51.55
2019-05-18T17:52:15.540Z,51.44
2019-05-18T17:54:47.303Z,51.77
2019-05-18T17:57:18.924Z,51.75
2019-05-18T17:59:50.549Z,53.03
2019-05-18T18:02:24.589Z,54.05
2019-05-18T18:04:56.345Z,55.29
2019-05-18T18:07:27.993Z,55.66
2019-05-18T18:09:59.732Z,56.08
2019-05-18T18:12:31.595Z,56.69
2019-05-18T18:15:03.685Z,55.97
2019-05-18T18:17:36.007Z,56.08
2019-05-18T18:20:07.786Z,56.07
2019-05-18T18:22:39.363Z,56.17
2019-05-18T18:25:11.667Z,56.96
2019-05-18T18:27:43.157Z,57.62
2019-05-18T18:30:15.312Z,58.05
2019-05-18T18:32:47.542Z,58.48
2019-05-18T18:35:19.177Z,56.93
2019-05-18T18:37:50.850Z,56.69
2019-05-18T18:40:22.885Z,57.87
2019-05-18T18:42:54.611Z,57.08
2019-05-18T18:45:26.268Z,56.82
2019-05-18T18:47:58.002Z,54.35
2019-05-18T18:50:29.640Z,54.33
2019-05-18T18:53:01.499Z,54.43
2019-05-18T18:55:33.320Z,55.64
2019-05-18T18:58:04.842Z,57.38
2019-05-18T19:00:36.956Z,57.64
2019-05-18T19:03:08.839Z,58.24
2019-05-18T19:05:40.604Z,58.47
2019-05-18T19:08:13.742Z,58.50
2019-05-18T19:10:45.653Z,58.91
2019-05-18T19:13:17.238Z,58.59
2019-05-18T19:15:48.669Z,58.90
2019-05-18T19:18:20.386Z,59.01
2019-05-18T19:20:52.386Z,59.26
2019-05-18T19:23:23.970Z,59.54
2019-05-18T19:25:56.004Z,60.16
2019-05-18T19:28:27.631Z,60.52
2019-05-18T19:30:59.467Z,61.01
2019-05-18T19:33:31.318Z,61.39
2019-05-18T19:36:03.293Z,61.93
2019-05-18T19:38:35.132Z,61.92
2019-05-18T19:41:06.788Z,61.63
2019-05-18T19:43:38.590Z,61.88
2019-05-18T19:46:10.465Z,61.97
2019-05-18T19:48:42.069Z,62.30
2019-05-18T19:51:16.053Z,62.33
2019-05-18T19:53:47.692Z,62.90
2019-05-18T19:56:19.601Z,62.76
2019-05-18T19:58:51.340Z,62.79
2019-05-18T20:01:23.044Z,61.34
2019-05-18T20:03:55.775Z,61.57
2019-05-18T20:06:27.447Z,60.97
2019-05-18T20:08:58.934Z,59.78
2019-05-18T20:11:30.722Z,60.40
2019-05-18T20:14:03.215Z,60.12
2019-05-18T20:16:34.675Z,61.14
2019-05-18T20:19:06.508Z,60.25
2019-05-18T20:21:38.274Z,59.84
2019-05-18T20:24:10.266Z,60.67
2019-05-18T20:26:42.027Z,59.59
2019-05-18T20:29:13.734Z,60.01
2019-05-18T20:31:45.390Z,60.45
2019-05-18T20:34:17.308Z,60.38
2019-05-18T20:36:49.029Z,60.77
2019-05-18T20:39:20.931Z,60.31
2019-05-18T20:41:52.808Z,60.98
2019-05-18T20:44:24.498Z,60.20
2019-05-18T20:46:56.271Z,60.00
2019-05-18T20:49:28.154Z,60.63
2019-05-18T20:51:59.911Z,60.05
2019-05-18T20:54:31.875Z,60.30
2019-05-18T20:57:03.300Z,60.35
2019-05-18T20:59:35.211Z,59.14
2019-05-18T21:02:08.065Z,59.63
2019-05-18T21:04:39.819Z,57.79
2019-05-18T21:07:11.504Z,57.72
2019-05-18T21:09:43.255Z,57.69
2019-05-18T21:12:14.927Z,58.73
2019-05-18T21:14:46.566Z,59.21
2019-05-18T21:17:17.850Z,58.53
2019-05-18T21:19:49.560Z,58.13
2019-05-18T21:22:21.204Z,58.72
2019-05-18T21:24:53.134Z,58.63
2019-05-18T21:27:24.776Z,59.17
2019-05-18T21:29:56.289Z,59.37
2019-05-18T21:32:27.956Z,59.39
2019-05-18T21:34:59.731Z,59.38
2019-05-18T21:37:31.555Z,59.27
2019-05-18T21:40:03.282Z,60.72
2019-05-18T21:42:35.147Z,59.89
2019-05-18T21:45:07.492Z,59.07
2019-05-18T21:47:39.398Z,57.75
2019-05-18T21:50:11.677Z,57.75
2019-05-18T21:52:43.213Z,57.50
2019-05-18T21:55:15.046Z,57.84
2019-05-18T21:57:46.692Z,58.16
2019-05-18T22:00:18.867Z,57.56
2019-05-18T22:02:52.271Z,58.75
2019-05-18T22:05:24.140Z,59.08
2019-05-18T22:07:55.804Z,58.10
2019-05-18T22:10:27.534Z,58.39
2019-05-18T22:12:59.148Z,60.37
2019-05-18T22:15:31.068Z,60.19
2019-05-18T22:18:05.888Z,59.77
2019-05-18T22:20:43.646Z,59.51
2019-05-18T22:23:11.264Z,59.60
2019-05-18T22:25:43.220Z,58.95
2019-05-18T22:28:14.943Z,60.02
2019-05-18T22:30:46.697Z,60.26
2019-05-18T22:33:18.380Z,60.39
2019-05-18T22:35:50.252Z,61.37
2019-05-18T22:38:21.999Z,60.84
2019-05-18T22:40:53.628Z,60.86
2019-05-18T22:43:25.307Z,60.95
2019-05-18T22:45:56.868Z,60.68
2019-05-18T22:48:40.779Z,61.27
2019-05-18T22:51:00.537Z,60.71
2019-05-18T22:53:32.390Z,61.19
2019-05-18T22:56:04.026Z,61.04
2019-05-18T22:58:35.547Z,60.67
2019-05-18T23:01:07.396Z,59.81
2019-05-18T23:03:39.078Z,60.29
2019-05-18T23:06:11.006Z,60.60
2019-05-18T23:08:42.886Z,60.59
2019-05-18T23:11:14.708Z,60.79
2019-05-18T23:13:46.626Z,60.54
2019-05-18T23:16:18.449Z,61.53
2019-05-18T23:18:56.690Z,60.50
2019-05-18T23:21:23.844Z,60.49
2019-05-18T23:23:55.464Z,60.59
2019-05-18T23:26:27.212Z,60.57
2019-05-18T23:29:00.354Z,61.18
2019-05-18T23:31:32.052Z,60.55
2019-05-18T23:34:03.675Z,60.64
2019-05-18T23:36:35.685Z,60.87
2019-05-18T23:39:08.016Z,61.09
2019-05-18T23:41:39.785Z,61.44
2019-05-18T23:44:11.561Z,61.44
2019-05-18T23:46:43.283Z,61.79
2019-05-18T23:49:15.307Z,63.16
2019-05-18T23:51:47.140Z,63.56
2019-05-18T23:54:18.884Z,63.13
2019-05-18T23:56:51.006Z,63.48
2019-05-18T23:59:22.843Z,63.25
